createdAt,value
2022-10-19T07:52:34.456Z,12.32
2022-10-19T07:55:04.946Z,12.55
2022-10-19T07:57:31.995Z,12.83
2022-10-19T07:59:59.091Z,13.11
2022-10-19T08:02:30.873Z,13.38
2022-10-19T08:05:10.546Z,13.69
2022-10-19T08:07:38.785Z,13.96
2022-10-19T08:10:06.474Z,14.18
2022-10-19T08:12:36.839Z,14.40
2022-10-19T08:15:07.305Z,14.67
2022-10-19T08:17:37.811Z,14.92
2022-10-19T08:20:05.798Z,15.13
2022-10-19T08:22:33.092Z,15.29
2022-10-19T08:25:00.408Z,15.40
2022-10-19T08:27:27.591Z,15.49
2022-10-19T08:29:55.246Z,15.54
2022-10-19T08:32:22.260Z,15.65
2022-10-19T08:34:49.516Z,15.75
2022-10-19T08:37:26.264Z,15.81
2022-10-19T08:40:04.703Z,15.88
2022-10-19T08:42:48.853Z,15.92
2022-10-19T08:45:45.397Z,15.94
2022-10-19T08:48:15.509Z,15.95
2022-10-19T08:50:44.044Z,16.02
2022-10-19T08:53:40.321Z,16.09
2022-10-19T08:56:51.064Z,16.13
2022-10-19T08:59:30.864Z,16.17
2022-10-19T09:02:24.204Z,16.22
2022-10-19T09:12:13.285Z,16.54
2022-10-19T09:21:15.169Z,16.84
2022-10-19T09:24:03.002Z,16.92
2022-10-19T09:26:31.994Z,17.00
2022-10-19T09:29:07.032Z,17.09
2022-10-19T09:31:42.955Z,17.22
2022-10-19T09:34:25.735Z,17.34
2022-10-19T09:36:54.134Z,17.41
2022-10-19T09:39:22.593Z,17.48
2022-10-19T09:41:55.857Z,17.62
2022-10-19T09:44:23.741Z,17.83
2022-10-19T09:46:56.928Z,18.08
2022-10-19T09:49:49.561Z,18.31
2022-10-19T09:52:38.321Z,18.48
2022-10-19T09:55:07.990Z,18.59
2022-10-19T09:57:45.001Z,18.62
2022-10-19T10:00:19.636Z,18.65
2022-10-19T10:02:51.185Z,18.67
2022-10-19T10:05:18.739Z,18.67
2022-10-19T10:07:45.891Z,18.67
2022-10-19T10:10:28.176Z,18.63
2022-10-19T10:13:00.569Z,18.57
2022-10-19T10:15:29.321Z,18.51
2022-10-19T10:17:56.297Z,18.50
2022-10-19T10:20:27.887Z,18.49
2022-10-19T10:23:18.910Z,18.50
2022-10-19T10:25:46.114Z,18.50
2022-10-19T10:28:20.328Z,18.49
2022-10-19T10:30:48.126Z,18.50
2022-10-19T10:33:27.061Z,18.54
2022-10-19T10:36:10.144Z,18.59
2022-10-19T10:38:47.836Z,18.65
2022-10-19T10:41:17.737Z,18.68
2022-10-19T10:43:53.816Z,18.69
2022-10-19T10:46:24.973Z,18.66
2022-10-19T10:48:59.283Z,18.60
2022-10-19T10:51:49.285Z,18.54
2022-10-19T10:54:27.259Z,18.49
2022-10-19T10:57:14.243Z,18.44
2022-10-19T10:59:53.616Z,18.39
2022-10-19T11:02:42.132Z,18.34
2022-10-19T11:05:26.928Z,18.31
2022-10-19T11:08:15.485Z,18.26
2022-10-19T11:10:53.556Z,18.16
2022-10-19T11:13:41.727Z,17.94
2022-10-19T11:16:23.109Z,17.63
2022-10-19T11:19:08.836Z,17.19
2022-10-19T11:21:44.602Z,16.80
2022-10-19T11:24:21.453Z,16.42
2022-10-19T11:27:12.148Z,16.06
2022-10-19T11:30:16.751Z,15.70
2022-10-19T12:46:00.060Z,16.06
2022-10-19T12:48:27.204Z,15.99
2022-10-19T12:50:54.278Z,15.94
2022-10-19T12:56:09.865Z,15.81
2022-10-19T12:59:04.133Z,15.75
2022-10-19T13:01:34.352Z,15.67
2022-10-19T13:04:11.643Z,15.60
2022-10-19T13:06:41.862Z,15.53
2022-10-19T13:09:09.997Z,15.44
2022-10-19T13:11:38.883Z,15.34
2022-10-19T13:14:07.240Z,15.27
2022-10-19T13:16:37.527Z,15.20
2022-10-19T13:19:13.998Z,15.12
2022-10-19T13:21:52.867Z,15.04
2022-10-19T13:24:24.881Z,14.93
2022-10-19T13:27:04.200Z,14.81
2022-10-19T13:29:38.337Z,14.72
2022-10-19T13:32:30.528Z,14.65
2022-10-19T13:35:27.209Z,14.59
2022-10-19T13:38:13.020Z,14.52
2022-10-19T13:40:49.281Z,14.45
2022-10-19T13:43:29.918Z,14.38
2022-10-19T13:46:09.937Z,14.32
2022-10-19T13:49:02.028Z,14.25
2022-10-19T13:51:54.358Z,14.16
2022-10-19T13:54:46.797Z,14.06
2022-10-19T13:57:26.638Z,13.98
2022-10-19T14:00:02.801Z,13.89
2022-10-19T14:03:24.221Z,13.83
2022-10-19T14:06:03.165Z,13.75
2022-10-19T14:08:51.988Z,13.70
2022-10-19T14:11:26.815Z,13.70
2022-10-19T14:14:15.491Z,13.71
2022-10-19T14:16:54.456Z,13.72
2022-10-19T14:19:50.697Z,13.72
2022-10-19T14:22:30.242Z,13.70
2022-10-19T14:25:18.495Z,13.66
2022-10-19T14:27:51.122Z,13.62
2022-10-19T14:30:23.056Z,13.60
2022-10-19T14:32:50.185Z,13.59
2022-10-19T14:35:39.979Z,13.58
2022-10-19T14:38:08.749Z,13.57
2022-10-19T14:40:40.126Z,13.57
2022-10-19T14:43:22.084Z,13.57
2022-10-19T14:46:07.887Z,13.55
2022-10-19T14:48:35.961Z,13.53
2022-10-19T14:51:03.107Z,13.50
2022-10-19T14:54:03.958Z,13.48
2022-10-19T14:56:49.326Z,13.44
2022-10-19T14:59:46.618Z,13.37
2022-10-19T15:02:33.439Z,13.30
2022-10-19T15:05:01.356Z,13.23
2022-10-19T15:07:38.356Z,13.16
2022-10-19T15:10:35.600Z,13.09
2022-10-19T15:13:06.473Z,13.02
2022-10-19T15:15:35.007Z,12.94
2022-10-19T15:18:02.098Z,12.87
2022-10-19T15:20:31.375Z,12.80
2022-10-19T15:23:01.987Z,12.74
2022-10-19T15:25:37.431Z,12.67
2022-10-19T15:28:36.082Z,12.61
2022-10-19T15:31:17.709Z,12.54
2022-10-19T15:33:49.160Z,12.50
2022-10-19T15:36:19.899Z,12.48
2022-10-19T15:39:18.405Z,12.44
2022-10-19T15:41:51.056Z,12.39
2022-10-19T15:44:43.907Z,12.35
2022-10-19T15:47:19.588Z,12.31
2022-10-19T15:49:47.120Z,12.26
2022-10-19T15:52:18.896Z,12.21
2022-10-19T15:54:54.337Z,12.15
2022-10-19T15:57:38.163Z,12.11
2022-10-19T16:00:14.211Z,12.08
2022-10-19T16:02:43.525Z,12.06
2022-10-19T16:05:11.177Z,12.05
2022-10-19T16:07:39.471Z,12.05
2022-10-19T16:10:07.764Z,12.05
2022-10-19T16:12:34.781Z,12.04
2022-10-19T16:15:01.930Z,12.04
2022-10-19T16:17:29.039Z,12.04
2022-10-19T16:19:56.019Z,12.03
2022-10-19T16:22:22.934Z,12.01
2022-10-19T16:24:52.272Z,11.97
2022-10-19T16:27:19.420Z,11.91
2022-10-19T16:29:46.467Z,11.86
2022-10-19T16:32:13.681Z,11.82
2022-10-19T16:34:41.590Z,11.77
2022-10-19T16:37:08.730Z,11.73
2022-10-19T16:39:35.778Z,11.69
2022-10-19T16:42:02.822Z,11.65
2022-10-19T16:44:29.971Z,11.61
2022-10-19T16:46:57.978Z,11.58
2022-10-19T16:49:25.079Z,11.55
2022-10-19T16:51:54.854Z,11.54
2022-10-19T16:54:24.713Z,11.52
2022-10-19T16:56:51.963Z,11.52
2022-10-19T16:59:19.154Z,11.53
2022-10-19T17:01:47.035Z,11.53
2022-10-19T17:04:15.221Z,11.54
2022-10-19T17:06:42.407Z,11.54
2022-10-19T17:11:57.123Z,11.53
2022-10-19T17:14:24.165Z,11.53
2022-10-19T17:16:52.098Z,11.53
2022-10-19T17:19:21.842Z,11.51
2022-10-19T17:21:49.601Z,11.50
2022-10-19T17:24:21.748Z,11.48
2022-10-19T17:26:56.450Z,11.47
2022-10-19T17:29:23.622Z,11.45
2022-10-19T17:31:50.702Z,11.44
2022-10-19T17:34:17.839Z,11.41
2022-10-19T17:36:45.336Z,11.37
2022-10-19T17:39:24.239Z,11.33
2022-10-19T17:41:54.637Z,11.31
2022-10-19T17:44:22.178Z,11.27
2022-10-19T17:46:49.246Z,11.27
2022-10-19T17:49:16.692Z,11.25
2022-10-19T17:51:43.958Z,11.24
2022-10-19T17:54:14.671Z,11.23
2022-10-19T17:56:45.351Z,11.22
2022-10-19T17:59:13.082Z,11.22
2022-10-19T18:01:40.321Z,11.23
2022-10-19T18:04:07.383Z,11.24
2022-10-19T18:06:36.361Z,11.25
2022-10-19T18:09:06.084Z,11.32
2022-10-19T18:11:37.420Z,11.43
2022-10-19T18:14:05.283Z,11.51
2022-10-19T18:16:46.022Z,11.55
2022-10-19T18:19:17.094Z,11.58
2022-10-19T18:21:47.906Z,11.60
2022-10-19T18:24:20.640Z,11.61
2022-10-19T18:26:51.442Z,11.61
2022-10-19T18:29:29.879Z,11.60
2022-10-19T18:32:01.784Z,11.59
2022-10-19T18:38:04.569Z,11.51
2022-10-19T18:44:04.609Z,11.43
2022-10-19T18:46:33.243Z,11.38
2022-10-19T18:49:00.711Z,11.34
2022-10-19T18:51:27.806Z,11.30
2022-10-19T18:53:55.113Z,11.32
2022-10-19T18:56:22.975Z,11.37
2022-10-19T18:58:50.503Z,11.41
2022-10-19T19:01:24.244Z,11.42
2022-10-19T19:03:52.742Z,11.39
2022-10-19T19:06:22.222Z,11.34
2022-10-19T19:08:49.689Z,11.27
2022-10-19T19:11:21.441Z,11.20
2022-10-19T19:13:49.612Z,11.12
2022-10-19T19:16:17.072Z,11.08
2022-10-19T19:18:44.319Z,11.11
2022-10-19T19:21:19.873Z,11.10
2022-10-19T19:23:47.359Z,11.08
2022-10-19T19:26:14.578Z,11.06
2022-10-19T19:28:42.322Z,11.04
2022-10-19T19:31:10.824Z,11.00
2022-10-19T19:33:38.691Z,10.94
2022-10-19T19:36:06.717Z,10.90
2022-10-19T19:38:33.918Z,10.86
2022-10-19T19:41:03.559Z,10.88
2022-10-19T19:43:31.563Z,10.93
2022-10-19T19:46:02.031Z,10.98
2022-10-19T19:48:31.707Z,11.00
2022-10-19T19:50:58.652Z,11.01
2022-10-19T19:53:25.974Z,11.03
2022-10-19T19:55:52.869Z,11.03
2022-10-19T19:58:20.164Z,11.02
2022-10-19T20:00:47.076Z,10.99
2022-10-19T20:03:14.085Z,11.03
2022-10-19T20:05:40.995Z,11.08
2022-10-19T20:09:55.008Z,11.15
2022-10-19T20:12:22.259Z,11.12
2022-10-19T20:14:49.407Z,11.10
2022-10-19T20:17:16.765Z,11.05
2022-10-19T20:19:43.912Z,10.98
2022-10-19T20:22:13.246Z,10.96
2022-10-19T20:24:40.565Z,11.00
2022-10-19T20:27:07.611Z,11.00
2022-10-19T20:29:34.659Z,10.97
2022-10-19T20:32:01.687Z,10.92
2022-10-19T20:34:28.676Z,10.88
2022-10-19T20:36:55.627Z,10.84
2022-10-19T20:39:22.482Z,10.81
2022-10-19T20:41:49.447Z,10.84
2022-10-19T20:44:16.403Z,10.86
2022-10-19T20:46:43.327Z,10.85
2022-10-19T20:49:13.637Z,10.79
2022-10-19T20:51:40.585Z,10.73
2022-10-19T20:54:12.229Z,10.69
2022-10-19T20:56:40.008Z,10.63
2022-10-19T20:59:17.045Z,10.54
2022-10-19T21:01:44.850Z,10.45
2022-10-19T21:04:13.499Z,10.37
2022-10-19T21:09:26.255Z,10.46
2022-10-19T21:11:53.529Z,10.44
2022-10-19T21:14:25.332Z,10.34
2022-10-19T21:16:58.557Z,10.23
2022-10-19T21:19:26.834Z,10.14
2022-10-19T21:21:55.789Z,10.04
2022-10-19T21:24:27.687Z,9.96
2022-10-19T21:26:54.737Z,9.89
2022-10-19T21:29:22.412Z,9.87
2022-10-19T21:31:50.186Z,9.85
2022-10-19T21:34:22.489Z,9.80
2022-10-19T21:36:49.704Z,9.74
2022-10-19T21:39:17.388Z,9.67
2022-10-19T21:41:44.499Z,9.61
2022-10-19T21:44:11.547Z,9.56
2022-10-19T21:46:38.909Z,9.51
2022-10-19T21:49:06.057Z,9.49
2022-10-19T21:51:55.113Z,9.52
2022-10-19T21:54:25.108Z,9.53
2022-10-19T21:56:53.472Z,9.50
2022-10-19T21:59:20.654Z,9.48
2022-10-19T22:01:48.050Z,9.44
2022-10-19T22:04:16.741Z,9.40
2022-10-19T22:06:51.116Z,9.34
2022-10-19T22:09:22.075Z,9.33
2022-10-19T22:11:52.380Z,9.35
2022-10-19T22:14:21.264Z,9.33
2022-10-19T22:16:48.413Z,9.28
2022-10-19T22:19:15.458Z,9.23
2022-10-19T22:21:45.568Z,9.17
2022-10-19T22:24:14.266Z,9.12
2022-10-19T22:26:50.933Z,9.08
2022-10-19T22:29:18.118Z,9.12
2022-10-19T22:31:45.340Z,9.19
2022-10-19T22:34:14.640Z,9.24
2022-10-19T22:36:42.199Z,9.26
2022-10-19T22:39:09.385Z,9.27
2022-10-19T22:41:43.868Z,9.27
2022-10-19T22:44:11.222Z,9.27
2022-10-19T22:46:38.477Z,9.27
2022-10-19T22:49:05.678Z,9.32
2022-10-19T22:51:32.773Z,9.40
2022-10-19T22:53:59.821Z,9.43
2022-10-19T22:56:26.998Z,9.42
2022-10-19T22:58:58.429Z,9.41
2022-10-19T23:01:25.624Z,9.39
2022-10-19T23:03:52.617Z,9.34
2022-10-19T23:06:19.666Z,9.29
2022-10-19T23:08:46.794Z,9.31
2022-10-19T23:11:14.517Z,9.35
2022-10-19T23:13:41.627Z,9.37
2022-10-19T23:16:09.009Z,9.35
2022-10-19T23:18:37.156Z,9.33
2022-10-19T23:21:06.249Z,9.31
2022-10-19T23:23:33.848Z,9.25
2022-10-19T23:26:08.807Z,9.20
2022-10-19T23:28:37.836Z,9.20
2022-10-19T23:31:14.201Z,9.23
2022-10-19T23:33:41.289Z,9.22
2022-10-19T23:36:11.638Z,9.19
2022-10-19T23:38:38.623Z,9.16
2022-10-19T23:41:05.985Z,9.10
2022-10-19T23:43:33.168Z,9.05
2022-10-19T23:46:00.373Z,8.97
2022-10-19T23:48:27.366Z,8.97
2022-10-19T23:51:01.228Z,8.99
2022-10-19T23:53:28.934Z,8.97
2022-10-19T23:56:03.717Z,8.95
2022-10-19T23:58:30.970Z,8.91
